createdAt,value
2018-12-31T00:03:22.353Z,18.10
2018-12-31T00:05:51.294Z,25.13
2018-12-31T00:08:39.231Z,20.53
2018-12-31T00:11:27.310Z,18.87
2018-12-31T00:13:56.468Z,18.10
2018-12-31T00:16:44.555Z,19.50
2018-12-31T00:19:32.460Z,18.77
2018-12-31T00:22:20.899Z,18.30
2018-12-31T00:25:08.849Z,16.97
2018-12-31T00:27:56.886Z,17.43
2018-12-31T00:30:44.970Z,16.63
2018-12-31T00:33:32.876Z,17.33
2018-12-31T00:36:20.961Z,17.40
2018-12-31T00:39:09.001Z,16.77
2018-12-31T00:41:57.078Z,16.07
2018-12-31T00:44:25.955Z,16.90
2018-12-31T00:47:14.038Z,16.23
2018-12-31T00:50:01.935Z,15.93
2018-12-31T00:52:50.025Z,15.73
2018-12-31T00:55:38.067Z,16.10
2018-12-31T00:58:06.985Z,16.13
2018-12-31T01:00:54.888Z,15.40
2018-12-31T01:03:42.981Z,15.87
2018-12-31T01:06:31.014Z,15.67
2018-12-31T01:09:19.041Z,16.23
2018-12-31T01:12:06.939Z,15.43
2018-12-31T01:14:55.050Z,15.80
2018-12-31T01:17:43.094Z,16.67
2018-12-31T01:23:24.947Z,16.87
2018-12-31T01:26:13.030Z,16.83
2018-12-31T01:29:01.252Z,19.03
2018-12-31T01:31:49.339Z,16.07
2018-12-31T01:34:37.431Z,18.70
2018-12-31T01:37:25.463Z,18.30
2018-12-31T01:40:13.419Z,16.73
2018-12-31T01:43:01.457Z,17.27
2018-12-31T01:45:49.555Z,18.47
2018-12-31T01:51:44.781Z,20.50
2018-12-31T01:54:32.826Z,17.33
2018-12-31T01:57:20.909Z,18.93
2018-12-31T02:00:08.975Z,18.53
2018-12-31T02:02:57.066Z,18.80
2018-12-31T02:05:45.109Z,16.80
2018-12-31T02:08:33.235Z,24.20
2018-12-31T02:11:21.283Z,17.20
2018-12-31T02:14:09.383Z,19.03
2018-12-31T02:16:57.278Z,17.57
2018-12-31T02:20:05.781Z,19.60
2018-12-31T02:22:53.825Z,19.87
2018-12-31T02:25:41.905Z,20.03
2018-12-31T02:28:29.944Z,17.17
2018-12-31T02:31:38.753Z,21.10
2018-12-31T02:34:26.657Z,20.57
2018-12-31T02:37:14.743Z,17.40
2018-12-31T02:40:02.799Z,17.13
2018-12-31T02:45:45.182Z,17.23
2018-12-31T02:48:33.279Z,17.10
2018-12-31T02:51:21.345Z,21.33
2018-12-31T02:54:09.438Z,20.60
2018-12-31T02:56:57.423Z,20.13
2018-12-31T02:59:45.510Z,20.40
2018-12-31T03:02:33.556Z,18.30
2018-12-31T03:05:21.510Z,21.00
2018-12-31T03:08:29.970Z,22.20
2018-12-31T03:11:18.057Z,21.47
2018-12-31T03:14:06.089Z,22.30
2018-12-31T03:16:54.186Z,24.07
2018-12-31T03:19:42.209Z,21.00
2018-12-31T03:22:30.577Z,19.30
2018-12-31T03:25:18.614Z,25.30
2018-12-31T03:28:06.705Z,19.50
2018-12-31T03:30:54.796Z,22.40
2018-12-31T03:33:42.764Z,20.77
2018-12-31T03:36:30.842Z,21.53
2018-12-31T03:39:18.824Z,21.87
2018-12-31T03:45:07.679Z,25.83
2018-12-31T03:47:55.726Z,21.20
2018-12-31T03:50:43.841Z,22.07
2018-12-31T03:53:31.944Z,23.10
2018-12-31T03:59:27.120Z,22.27
2018-12-31T04:02:15.469Z,21.40
2018-12-31T04:05:03.545Z,20.90
2018-12-31T04:07:53.124Z,24.17
2018-12-31T04:13:35.229Z,24.90
2018-12-31T04:16:23.306Z,25.17
2018-12-31T04:19:11.391Z,23.77
2018-12-31T04:21:59.422Z,24.87
2018-12-31T04:24:47.505Z,23.50
2018-12-31T04:27:35.537Z,24.87
2018-12-31T04:33:19.185Z,22.77
2018-12-31T04:36:07.099Z,24.27
2018-12-31T04:38:55.202Z,26.80
2018-12-31T04:41:43.237Z,32.10
2018-12-31T04:44:31.194Z,33.90
2018-12-31T04:50:07.389Z,28.97
2018-12-31T04:52:56.594Z,26.30
2018-12-31T04:55:45.242Z,29.07
2018-12-31T04:58:33.266Z,29.97
2018-12-31T05:01:21.201Z,32.33
2018-12-31T05:04:09.164Z,29.13
2018-12-31T05:06:57.212Z,28.87
2018-12-31T05:09:45.559Z,29.27
2018-12-31T05:15:40.954Z,28.23
2018-12-31T05:18:29.022Z,32.23
2018-12-31T05:21:17.109Z,30.17
2018-12-31T05:24:05.145Z,26.10
2018-12-31T05:26:53.099Z,27.90
2018-12-31T05:29:41.181Z,27.00
2018-12-31T05:32:29.222Z,30.73
2018-12-31T05:35:17.307Z,28.20
2018-12-31T05:38:05.465Z,29.97
2018-12-31T05:40:53.541Z,28.10
2018-12-31T05:43:41.624Z,32.77
2018-12-31T05:49:36.896Z,28.97
2018-12-31T05:52:24.942Z,32.67
2018-12-31T05:55:13.038Z,29.37
2018-12-31T05:58:00.979Z,35.57
2018-12-31T06:00:29.917Z,31.63
2018-12-31T06:03:18.107Z,31.87
2018-12-31T06:09:13.283Z,37.80
2018-12-31T06:12:01.376Z,43.20
2018-12-31T06:15:09.879Z,31.30
2018-12-31T06:17:57.961Z,31.30
2018-12-31T06:20:45.993Z,33.57
2018-12-31T06:23:14.901Z,33.27
2018-12-31T06:26:02.981Z,35.67
2018-12-31T06:28:51.467Z,30.30
2018-12-31T06:34:46.639Z,29.30
2018-12-31T06:37:34.682Z,28.13
2018-12-31T06:40:22.773Z,34.57
2018-12-31T06:43:10.806Z,27.83
2018-12-31T06:45:58.896Z,30.27
2018-12-31T06:48:46.951Z,33.30
2018-12-31T06:51:35.035Z,30.47
2018-12-31T06:54:23.127Z,27.67
2018-12-31T06:57:11.209Z,37.93
2018-12-31T06:59:59.637Z,29.00
2018-12-31T07:02:47.683Z,35.53
2018-12-31T07:05:35.704Z,30.77
2018-12-31T07:08:23.636Z,34.00
2018-12-31T07:11:11.984Z,32.90
2018-12-31T07:13:59.916Z,34.00
2018-12-31T07:16:47.866Z,32.70
2018-12-31T07:19:35.782Z,28.30
2018-12-31T07:22:23.866Z,29.80
2018-12-31T07:25:11.898Z,26.17
2018-12-31T07:27:40.876Z,25.80
2018-12-31T07:30:28.846Z,26.73
2018-12-31T07:33:17.257Z,27.97
2018-12-31T07:36:05.333Z,28.50
2018-12-31T07:38:53.369Z,26.70
2018-12-31T07:41:41.309Z,25.00
2018-12-31T07:44:29.205Z,25.03
2018-12-31T07:47:17.146Z,24.70
2018-12-31T07:50:05.182Z,28.27
2018-12-31T07:52:53.269Z,22.13
2018-12-31T07:55:41.342Z,27.00
2018-12-31T07:58:29.391Z,25.73
2018-12-31T08:01:17.482Z,23.83
2018-12-31T08:03:46.405Z,25.87
2018-12-31T08:06:34.443Z,24.43
2018-12-31T08:09:22.870Z,26.33
2018-12-31T08:15:18.041Z,27.40
2018-12-31T08:18:06.093Z,28.33
2018-12-31T08:20:54.221Z,25.23
2018-12-31T08:23:42.421Z,26.20
2018-12-31T08:26:30.364Z,24.83
2018-12-31T08:29:18.264Z,28.17
2018-12-31T08:32:06.216Z,25.30
2018-12-31T08:34:54.157Z,27.13
2018-12-31T08:37:42.095Z,27.67
2018-12-31T08:40:29.989Z,29.30
2018-12-31T08:43:18.357Z,25.93
2018-12-31T08:46:06.413Z,23.50
2018-12-31T08:48:54.494Z,24.17
2018-12-31T08:54:49.586Z,29.00
2018-12-31T08:57:37.998Z,23.40
2018-12-31T09:00:26.222Z,23.53
2018-12-31T09:03:14.257Z,23.60
2018-12-31T09:06:02.372Z,22.20
2018-12-31T09:08:50.779Z,21.07
2018-12-31T09:11:39.017Z,23.53
2018-12-31T09:14:27.055Z,21.87
2018-12-31T09:17:15.216Z,22.63
2018-12-31T09:20:03.190Z,18.73
2018-12-31T09:22:51.298Z,20.23
2018-12-31T09:25:39.341Z,20.57
2018-12-31T09:28:27.415Z,21.40
2018-12-31T09:31:15.553Z,19.37
2018-12-31T09:37:10.731Z,18.83
2018-12-31T09:39:58.627Z,17.87
2018-12-31T09:42:46.706Z,18.10
2018-12-31T09:45:34.823Z,17.73
2018-12-31T09:51:29.989Z,17.27
2018-12-31T09:54:17.934Z,17.63
2018-12-31T09:59:59.431Z,16.63
2018-12-31T10:02:47.528Z,17.63
2018-12-31T10:05:35.565Z,17.30
2018-12-31T10:08:23.830Z,17.20
2018-12-31T10:11:11.873Z,18.80
2018-12-31T10:13:59.825Z,18.13
2018-12-31T10:19:35.912Z,19.17
2018-12-31T10:22:23.815Z,19.53
2018-12-31T10:25:11.901Z,18.07
2018-12-31T10:31:07.346Z,20.13
2018-12-31T10:33:55.385Z,17.83
2018-12-31T10:36:24.282Z,18.60
2018-12-31T10:39:12.373Z,17.20
2018-12-31T10:42:00.347Z,17.57
2018-12-31T10:44:48.444Z,17.67
2018-12-31T10:50:43.566Z,19.03
2018-12-31T10:53:31.607Z,19.47
2018-12-31T10:56:19.734Z,18.50
2018-12-31T10:59:07.818Z,17.90
2018-12-31T11:01:58.057Z,18.37
2018-12-31T11:04:46.484Z,18.70
2018-12-31T11:07:34.534Z,19.30
2018-12-31T11:10:22.626Z,19.60
2018-12-31T11:13:10.670Z,18.67
2018-12-31T11:15:58.620Z,18.40
2018-12-31T11:18:27.574Z,19.37
2018-12-31T11:21:15.520Z,19.10
2018-12-31T11:24:03.563Z,19.23
2018-12-31T11:26:51.502Z,19.57
2018-12-31T11:29:39.922Z,18.53
2018-12-31T11:32:27.813Z,19.37
2018-12-31T11:35:16.203Z,20.60
2018-12-31T11:38:04.420Z,20.20
2018-12-31T11:43:45.743Z,20.27
2018-12-31T11:49:40.920Z,21.80
2018-12-31T11:52:28.961Z,22.30
2018-12-31T11:55:17.430Z,22.47
2018-12-31T11:57:46.295Z,21.70
2018-12-31T12:00:34.387Z,21.93
2018-12-31T12:03:22.305Z,22.07
2018-12-31T12:06:10.397Z,22.00
2018-12-31T12:08:58.460Z,21.50
2018-12-31T12:11:46.542Z,21.70
2018-12-31T12:14:34.922Z,21.67
2018-12-31T12:17:22.994Z,22.20
2018-12-31T12:20:11.084Z,23.30
2018-12-31T12:22:58.993Z,22.20
2018-12-31T12:25:47.079Z,23.00
2018-12-31T12:28:35.182Z,23.53
2018-12-31T12:37:05.121Z,23.30
2018-12-31T12:39:53.200Z,22.50
2018-12-31T12:42:41.269Z,24.30
2018-12-31T12:48:36.736Z,21.73
2018-12-31T12:54:31.936Z,21.40
2018-12-31T12:57:19.884Z,30.80
2018-12-31T12:59:48.795Z,23.50
2018-12-31T13:05:44.002Z,21.43
2018-12-31T13:08:31.905Z,23.23
2018-12-31T13:11:21.714Z,21.67
2018-12-31T13:14:10.079Z,22.57
2018-12-31T13:16:59.878Z,21.87
2018-12-31T13:19:47.924Z,22.23
2018-12-31T13:28:25.422Z,21.10
2018-12-31T13:31:13.509Z,20.70
2018-12-31T13:34:01.640Z,19.50
2018-12-31T13:39:56.818Z,20.80
2018-12-31T13:42:44.886Z,20.83
2018-12-31T13:45:14.265Z,20.13
2018-12-31T13:48:02.201Z,21.00
2018-12-31T13:50:52.010Z,20.93
2018-12-31T13:53:40.070Z,20.20
2018-12-31T13:56:29.873Z,22.30
2018-12-31T13:59:17.949Z,21.40
2018-12-31T14:02:07.745Z,20.37
2018-12-31T14:04:55.675Z,21.40
2018-12-31T14:07:43.788Z,21.73
2018-12-31T14:10:31.875Z,21.07
2018-12-31T14:13:21.868Z,24.23
2018-12-31T14:16:09.959Z,24.23
2018-12-31T14:18:40.841Z,23.20
2018-12-31T14:21:10.111Z,26.97
2018-12-31T14:23:50.631Z,23.03
2018-12-31T14:26:19.618Z,24.83
2018-12-31T14:29:09.441Z,20.83
2018-12-31T14:31:57.483Z,22.67
2018-12-31T14:34:47.262Z,21.97
2018-12-31T14:37:16.178Z,21.50
2018-12-31T14:40:04.218Z,20.80
2018-12-31T14:42:52.297Z,21.03
2018-12-31T14:48:47.463Z,19.73
2018-12-31T14:51:35.497Z,20.43
2018-12-31T14:54:23.573Z,21.17
2018-12-31T15:00:18.670Z,22.37
2018-12-31T15:03:06.710Z,22.20
2018-12-31T15:05:54.812Z,21.07
2018-12-31T15:08:42.846Z,21.93
2018-12-31T15:11:30.922Z,22.83
2018-12-31T15:14:20.723Z,21.87
2018-12-31T15:17:08.806Z,21.80
2018-12-31T15:19:58.565Z,23.00
2018-12-31T15:22:46.642Z,23.23
2018-12-31T15:28:41.949Z,22.40
2018-12-31T15:31:29.911Z,22.07
2018-12-31T15:34:18.012Z,22.97
2018-12-31T15:37:06.052Z,23.60
2018-12-31T15:39:54.008Z,21.87
2018-12-31T15:42:41.938Z,23.30
2018-12-31T15:45:29.955Z,24.97
2018-12-31T15:48:17.993Z,22.50
2018-12-31T15:51:06.078Z,22.10
2018-12-31T15:53:54.145Z,21.60
2018-12-31T15:56:42.215Z,23.60
2018-12-31T15:59:32.083Z,22.87
2018-12-31T16:02:20.073Z,23.90
2018-12-31T16:04:50.872Z,23.87
2018-12-31T16:10:46.096Z,24.40
2018-12-31T16:13:34.285Z,24.97
2018-12-31T16:16:22.378Z,23.93
2018-12-31T16:19:10.465Z,22.63
2018-12-31T16:21:58.403Z,22.93
2018-12-31T16:24:46.372Z,22.90
2018-12-31T16:27:34.475Z,22.20
2018-12-31T16:30:22.447Z,21.83
2018-12-31T16:33:10.519Z,22.37
2018-12-31T16:35:58.647Z,22.17
2018-12-31T16:38:46.689Z,21.50
2018-12-31T16:41:34.767Z,22.30
2018-12-31T16:44:23.178Z,22.77
2018-12-31T16:47:11.259Z,23.10
2018-12-31T16:56:00.200Z,20.40
2018-12-31T16:58:48.148Z,21.47
2018-12-31T17:01:37.931Z,21.30
2018-12-31T17:04:26.043Z,20.70
2018-12-31T17:07:14.061Z,22.17
2018-12-31T17:12:55.693Z,21.67
2018-12-31T17:15:43.718Z,21.37
2018-12-31T17:18:31.939Z,22.67
2018-12-31T17:21:19.889Z,20.80
2018-12-31T17:24:07.990Z,80.83
2018-12-31T17:26:56.058Z,22.00
2018-12-31T17:29:44.095Z,20.90
2018-12-31T17:32:32.170Z,20.63
2018-12-31T17:35:20.214Z,19.80
2018-12-31T17:38:08.323Z,19.00
2018-12-31T17:40:56.613Z,20.20
2018-12-31T17:43:44.769Z,21.43
2018-12-31T17:49:39.942Z,19.50
2018-12-31T17:52:27.887Z,20.47
2018-12-31T17:58:04.242Z,18.83
2018-12-31T18:00:52.136Z,19.50
2018-12-31T18:03:40.570Z,19.27
2018-12-31T18:06:28.612Z,19.43
2018-12-31T18:09:16.698Z,21.10
2018-12-31T18:12:04.749Z,20.57
2018-12-31T18:14:53.147Z,20.13
2018-12-31T18:17:41.198Z,19.57
2018-12-31T18:20:29.974Z,18.80
2018-12-31T18:23:18.014Z,19.93
2018-12-31T18:26:06.095Z,20.60
2018-12-31T18:28:54.215Z,23.60
2018-12-31T18:31:42.326Z,20.93
2018-12-31T18:40:31.201Z,21.50
2018-12-31T18:43:19.352Z,22.73
2018-12-31T18:46:07.750Z,22.10
2018-12-31T18:48:55.837Z,24.20
2018-12-31T18:51:43.914Z,25.47
2018-12-31T18:54:32.043Z,25.00
2018-12-31T18:57:20.089Z,24.00
2018-12-31T19:00:08.269Z,23.13
2018-12-31T19:02:56.309Z,24.30
2018-12-31T19:05:44.403Z,24.37
2018-12-31T19:08:33.312Z,24.87
2018-12-31T19:11:22.810Z,24.73
2018-12-31T19:14:10.885Z,26.80
2018-12-31T19:16:58.965Z,23.27
2018-12-31T19:19:47.056Z,24.73
2018-12-31T19:22:35.069Z,24.40
2018-12-31T19:25:23.137Z,24.73
2018-12-31T19:28:11.103Z,25.40
2018-12-31T19:31:00.940Z,25.90
2018-12-31T19:33:49.094Z,25.57
2018-12-31T19:36:38.886Z,25.00
2018-12-31T19:39:27.058Z,25.30
2018-12-31T19:42:16.853Z,24.67
2018-12-31T19:45:04.905Z,26.20
2018-12-31T19:47:52.986Z,24.00
2018-12-31T19:50:41.057Z,26.20
2018-12-31T19:53:29.094Z,25.57
2018-12-31T19:56:17.180Z,24.50
2018-12-31T19:59:05.092Z,25.70
2018-12-31T20:01:53.167Z,25.07
2018-12-31T20:04:41.278Z,26.03
2018-12-31T20:07:29.229Z,24.23
2018-12-31T20:10:17.272Z,25.80
2018-12-31T20:13:05.362Z,25.83
2018-12-31T20:15:53.403Z,25.70
2018-12-31T20:18:41.486Z,26.77
2018-12-31T20:21:29.530Z,26.47
2018-12-31T20:24:17.615Z,26.47
2018-12-31T20:27:05.642Z,25.20
2018-12-31T20:29:55.444Z,24.10
2018-12-31T20:32:43.489Z,25.00
2018-12-31T20:35:33.637Z,25.30
2018-12-31T20:38:21.722Z,25.20
2018-12-31T20:41:09.774Z,26.17
2018-12-31T20:43:57.718Z,25.10
2018-12-31T20:46:45.758Z,25.17
2018-12-31T20:49:33.838Z,24.33
2018-12-31T20:52:21.921Z,25.40
2018-12-31T20:55:10.010Z,23.30
2018-12-31T20:57:58.041Z,25.10
2018-12-31T21:00:46.126Z,24.80
2018-12-31T21:03:34.165Z,24.20
2018-12-31T21:06:22.102Z,24.70
2018-12-31T21:09:10.202Z,29.07
2018-12-31T21:11:59.968Z,27.07
2018-12-31T21:14:55.302Z,25.17
2018-12-31T21:17:43.390Z,25.60
2018-12-31T21:20:31.444Z,25.60
2018-12-31T21:26:14.494Z,24.47
2018-12-31T21:29:02.403Z,23.00
2018-12-31T21:31:50.473Z,23.60
2018-12-31T21:37:34.347Z,23.77
2018-12-31T21:40:22.428Z,23.07
2018-12-31T21:43:10.500Z,23.37
2018-12-31T21:46:00.294Z,22.87
2018-12-31T21:48:48.319Z,23.47
2018-12-31T21:51:38.121Z,23.17
2018-12-31T21:54:26.171Z,22.13
2018-12-31T21:57:14.606Z,23.13
2018-12-31T22:00:02.865Z,23.77
2018-12-31T22:02:57.040Z,23.40
2018-12-31T22:08:47.737Z,22.77
2018-12-31T22:11:35.814Z,24.80
2018-12-31T22:20:11.803Z,24.80
2018-12-31T22:22:59.844Z,26.83
2018-12-31T22:25:47.966Z,24.33
2018-12-31T22:28:16.839Z,24.87
2018-12-31T22:31:05.257Z,24.50
2018-12-31T22:33:53.334Z,26.40
2018-12-31T22:36:41.239Z,26.00
2018-12-31T22:39:29.327Z,23.97
2018-12-31T22:42:17.362Z,24.80
2018-12-31T22:45:05.437Z,25.97
2018-12-31T22:47:34.680Z,24.67
2018-12-31T22:50:22.718Z,25.10
2018-12-31T22:53:11.176Z,24.07
2018-12-31T22:59:06.427Z,25.10
2018-12-31T23:01:54.391Z,24.50
2018-12-31T23:04:42.480Z,31.83
2018-12-31T23:07:32.620Z,38.90
2018-12-31T23:13:08.693Z,45.73
2018-12-31T23:15:57.156Z,65.43
2018-12-31T23:18:46.827Z,58.90
2018-12-31T23:24:42.005Z,30.53
2018-12-31T23:27:30.609Z,29.03
2018-12-31T23:30:18.778Z,29.40
2018-12-31T23:33:06.727Z,25.00
2018-12-31T23:35:54.844Z,24.60
2018-12-31T23:38:42.780Z,22.70
2018-12-31T23:41:30.822Z,21.80
2018-12-31T23:44:18.775Z,22.40
2018-12-31T23:50:14.193Z,22.53
2018-12-31T23:53:02.131Z,22.67
2018-12-31T23:55:50.216Z,23.67
2018-12-31T23:58:38.262Z,23.57
